sensor_id;sensor_type;location;lat;lon;timestamp;pressure;altitude;pressure_sealevel;temperature;humidity
76973;BME280;65907;53.640;10.050;2022-12-18T00:01:48;102756.44;;;18.90;38.78
76973;BME280;65907;53.640;10.050;2022-12-18T00:04:23;102759.97;;;18.89;38.85
76973;BME280;65907;53.640;10.050;2022-12-18T00:06:48;102758.22;;;18.89;38.87
76973;BME280;65907;53.640;10.050;2022-12-18T00:09:14;102763.44;;;18.89;38.80
76973;BME280;65907;53.640;10.050;2022-12-18T00:11:39;102759.97;;;18.89;38.69
76973;BME280;65907;53.640;10.050;2022-12-18T00:14:04;102760.84;;;18.89;38.60
76973;BME280;65907;53.640;10.050;2022-12-18T00:16:30;102761.75;;;18.88;38.62
76973;BME280;65907;53.640;10.050;2022-12-18T00:18:57;102756.53;;;18.88;38.66
76973;BME280;65907;53.640;10.050;2022-12-18T00:21:22;102765.19;;;18.89;38.88
76973;BME280;65907;53.640;10.050;2022-12-18T00:23:48;102765.28;;;18.87;38.78
76973;BME280;65907;53.640;10.050;2022-12-18T00:26:14;102771.31;;;18.88;38.79
76973;BME280;65907;53.640;10.050;2022-12-18T00:28:40;102767.00;;;18.87;38.97
76973;BME280;65907;53.640;10.050;2022-12-18T00:31:10;102779.13;;;18.88;38.67
76973;BME280;65907;53.640;10.050;2022-12-18T00:33:36;102774.00;;;18.86;38.49
76973;BME280;65907;53.640;10.050;2022-12-18T00:36:05;102780.03;;;18.87;38.54
76973;BME280;65907;53.640;10.050;2022-12-18T00:38:31;102787.03;;;18.86;38.70
76973;BME280;65907;53.640;10.050;2022-12-18T00:40:56;102782.66;;;18.87;38.61
76973;BME280;65907;53.640;10.050;2022-12-18T00:43:21;102779.25;;;18.85;38.51
76973;BME280;65907;53.640;10.050;2022-12-18T00:45:46;102774.91;;;18.85;38.77
76973;BME280;65907;53.640;10.050;2022-12-18T00:48:11;102782.72;;;18.85;38.31
76973;BME280;65907;53.640;10.050;2022-12-18T00:50:37;102774.13;;;18.83;38.64
76973;BME280;65907;53.640;10.050;2022-12-18T00:53:02;102778.44;;;18.84;38.56
76973;BME280;65907;53.640;10.050;2022-12-18T00:55:27;102779.34;;;18.83;38.67
76973;BME280;65907;53.640;10.050;2022-12-18T00:57:52;102769.84;;;18.82;38.25
76973;BME280;65907;53.640;10.050;2022-12-18T01:00:18;102768.97;;;18.82;38.41
76973;BME280;65907;53.640;10.050;2022-12-18T01:02:43;102762.84;;;18.83;38.41
76973;BME280;65907;53.640;10.050;2022-12-18T01:05:09;102776.78;;;18.82;38.54
76973;BME280;65907;53.640;10.050;2022-12-18T01:07:35;102784.59;;;18.82;38.19
76973;BME280;65907;53.640;10.050;2022-12-18T01:10:00;102790.72;;;18.81;38.56
76973;BME280;65907;53.640;10.050;2022-12-18T01:12:25;102783.81;;;18.80;38.42
76973;BME280;65907;53.640;10.050;2022-12-18T01:14:51;102789.03;;;18.80;38.48
76973;BME280;65907;53.640;10.050;2022-12-18T01:17:16;102796.06;;;18.77;38.47
76973;BME280;65907;53.640;10.050;2022-12-18T01:19:41;102792.56;;;18.78;38.47
76973;BME280;65907;53.640;10.050;2022-12-18T01:22:06;102790.88;;;18.77;38.40
76973;BME280;65907;53.640;10.050;2022-12-18T01:24:31;102787.41;;;18.77;38.55
76973;BME280;65907;53.640;10.050;2022-12-18T01:26:57;102779.66;;;18.75;38.25
76973;BME280;65907;53.640;10.050;2022-12-18T01:29:22;102777.06;;;18.75;38.33
76973;BME280;65907;53.640;10.050;2022-12-18T01:31:48;102779.66;;;18.75;38.22
76973;BME280;65907;53.640;10.050;2022-12-18T01:34:13;102779.72;;;18.74;38.20
76973;BME280;65907;53.640;10.050;2022-12-18T01:36:38;102779.78;;;18.72;38.42
76973;BME280;65907;53.640;10.050;2022-12-18T01:39:09;102779.78;;;18.72;38.46
76973;BME280;65907;53.640;10.050;2022-12-18T01:41:35;102785.91;;;18.71;38.07
76973;BME280;65907;53.640;10.050;2022-12-18T01:47:03;102797.25;;;18.70;38.13
76973;BME280;65907;53.640;10.050;2022-12-18T01:49:28;102792.03;;;18.70;38.48
76973;BME280;65907;53.640;10.050;2022-12-18T01:51:53;102787.72;;;18.69;38.22
76973;BME280;65907;53.640;10.050;2022-12-18T01:54:18;102794.69;;;18.69;38.19
76973;BME280;65907;53.640;10.050;2022-12-18T01:56:43;102794.75;;;18.67;38.34
76973;BME280;65907;53.640;10.050;2022-12-18T01:59:09;102803.38;;;18.69;37.98
76973;BME280;65907;53.640;10.050;2022-12-18T02:01:34;102791.34;;;18.65;38.13
76973;BME280;65907;53.640;10.050;2022-12-18T02:06:46;102800.06;;;18.64;37.99
76973;BME280;65907;53.640;10.050;2022-12-18T02:09:18;102797.56;;;18.62;38.21
76973;BME280;65907;53.640;10.050;2022-12-18T02:11:58;102800.16;;;18.62;38.08
76973;BME280;65907;53.640;10.050;2022-12-18T02:14:31;102805.41;;;18.61;38.21
76973;BME280;65907;53.640;10.050;2022-12-18T02:19:39;102806.31;;;18.60;38.12
76973;BME280;65907;53.640;10.050;2022-12-18T02:27:23;102820.41;;;18.56;38.16
76973;BME280;65907;53.640;10.050;2022-12-18T02:29:51;102810.03;;;18.54;38.19
76973;BME280;65907;53.640;10.050;2022-12-18T02:32:19;102822.22;;;18.54;38.04
76973;BME280;65907;53.640;10.050;2022-12-18T02:34:45;102828.34;;;18.53;38.25
76973;BME280;65907;53.640;10.050;2022-12-18T02:37:12;102828.38;;;18.51;38.36
76973;BME280;65907;53.640;10.050;2022-12-18T02:39:39;102824.09;;;18.50;38.41
76973;BME280;65907;53.640;10.050;2022-12-18T02:42:06;102831.91;;;18.50;38.02
76973;BME280;65907;53.640;10.050;2022-12-18T02:44:34;102833.66;;;18.49;38.28
76973;BME280;65907;53.640;10.050;2022-12-18T02:47:00;102836.31;;;18.48;37.93
76973;BME280;65907;53.640;10.050;2022-12-18T02:49:36;102827.72;;;18.46;37.95
76973;BME280;65907;53.640;10.050;2022-12-18T02:52:26;102826.88;;;18.45;38.04
76973;BME280;65907;53.640;10.050;2022-12-18T03:00:08;102828.63;;;18.45;38.18
76973;BME280;65907;53.640;10.050;2022-12-18T03:02:37;102843.41;;;18.44;37.82
76973;BME280;65907;53.640;10.050;2022-12-18T03:07:37;102838.16;;;18.46;37.93
76973;BME280;65907;53.640;10.050;2022-12-18T03:10:03;102833.78;;;18.46;37.70
76973;BME280;65907;53.640;10.050;2022-12-18T03:12:32;102834.63;;;18.47;37.72
76973;BME280;65907;53.640;10.050;2022-12-18T03:17:25;102837.22;;;18.47;38.14
76973;BME280;65907;53.640;10.050;2022-12-18T03:19:51;102829.41;;;18.47;37.87
76973;BME280;65907;53.640;10.050;2022-12-18T03:22:17;102827.69;;;18.47;37.63
76973;BME280;65907;53.640;10.050;2022-12-18T03:24:43;102827.69;;;18.47;37.55
76973;BME280;65907;53.640;10.050;2022-12-18T03:27:10;102832.88;;;18.47;37.55
76973;BME280;65907;53.640;10.050;2022-12-18T03:32:47;102842.41;;;18.48;37.85
76973;BME280;65907;53.640;10.050;2022-12-18T03:35:14;102838.09;;;18.47;37.70
76973;BME280;65907;53.640;10.050;2022-12-18T03:37:42;102825.97;;;18.46;37.74
76973;BME280;65907;53.640;10.050;2022-12-18T03:40:08;102833.72;;;18.48;37.76
76973;BME280;65907;53.640;10.050;2022-12-18T03:45:02;102823.25;;;18.49;37.44
76973;BME280;65907;53.640;10.050;2022-12-18T03:47:40;102831.06;;;18.49;37.59
76973;BME280;65907;53.640;10.050;2022-12-18T03:54:59;102838.03;;;18.49;37.46
76973;BME280;65907;53.640;10.050;2022-12-18T03:57:26;102828.47;;;18.49;37.16
76973;BME280;65907;53.640;10.050;2022-12-18T03:59:54;102825.84;;;18.49;37.31
76973;BME280;65907;53.640;10.050;2022-12-18T04:02:21;102826.69;;;18.50;37.37
76973;BME280;65907;53.640;10.050;2022-12-18T04:04:47;102829.28;;;18.50;37.12
76973;BME280;65907;53.640;10.050;2022-12-18T04:07:15;102828.47;;;18.49;37.25
76973;BME280;65907;53.640;10.050;2022-12-18T04:09:41;102827.59;;;18.49;37.07
76973;BME280;65907;53.640;10.050;2022-12-18T04:12:08;102835.38;;;18.51;37.33
76973;BME280;65907;53.640;10.050;2022-12-18T04:14:33;102828.47;;;18.49;37.25
76973;BME280;65907;53.640;10.050;2022-12-18T04:17:00;102833.66;;;18.49;37.13
76973;BME280;65907;53.640;10.050;2022-12-18T04:19:25;102831.91;;;18.50;37.06
76973;BME280;65907;53.640;10.050;2022-12-18T04:21:51;102827.56;;;18.51;37.44
76973;BME280;65907;53.640;10.050;2022-12-18T04:24:16;102833.66;;;18.49;37.24
76973;BME280;65907;53.640;10.050;2022-12-18T04:26:41;102828.47;;;18.49;36.89
76973;BME280;65907;53.640;10.050;2022-12-18T04:29:06;102832.81;;;18.49;37.25
76973;BME280;65907;53.640;10.050;2022-12-18T04:31:31;102831.06;;;18.49;37.21
76973;BME280;65907;53.640;10.050;2022-12-18T04:33:57;102831.97;;;18.48;37.01
76973;BME280;65907;53.640;10.050;2022-12-18T04:36:22;102836.41;;;18.46;37.02
76973;BME280;65907;53.640;10.050;2022-12-18T04:38:47;102838.16;;;18.46;37.50
76973;BME280;65907;53.640;10.050;2022-12-18T04:41:12;102834.72;;;18.45;37.17
76973;BME280;65907;53.640;10.050;2022-12-18T04:43:37;102836.50;;;18.43;37.43
76973;BME280;65907;53.640;10.050;2022-12-18T04:46:06;102831.34;;;18.42;37.54
76973;BME280;65907;53.640;10.050;2022-12-18T04:48:31;102828.81;;;18.40;37.34
76973;BME280;65907;53.640;10.050;2022-12-18T04:50:57;102821.97;;;18.38;37.52
76973;BME280;65907;53.640;10.050;2022-12-18T04:53:22;102834.09;;;18.39;37.74
76973;BME280;65907;53.640;10.050;2022-12-18T04:55:47;102817.59;;;18.38;37.64
76973;BME280;65907;53.640;10.050;2022-12-18T04:58:12;102830.63;;;18.38;37.20
76973;BME280;65907;53.640;10.050;2022-12-18T05:00:37;102841.03;;;18.38;37.43
76973;BME280;65907;53.640;10.050;2022-12-18T05:03:03;102846.25;;;18.38;37.24
76973;BME280;65907;53.640;10.050;2022-12-18T05:05:28;102850.63;;;18.38;37.08
76973;BME280;65907;53.640;10.050;2022-12-18T05:07:53;102850.63;;;18.38;37.18
76973;BME280;65907;53.640;10.050;2022-12-18T05:10:18;102861.03;;;18.38;37.09
76973;BME280;65907;53.640;10.050;2022-12-18T05:12:43;102863.66;;;18.38;37.35
76973;BME280;65907;53.640;10.050;2022-12-18T05:15:27;102867.09;;;18.38;37.00
76973;BME280;65907;53.640;10.050;2022-12-18T05:17:53;102867.94;;;18.39;37.14
76973;BME280;65907;53.640;10.050;2022-12-18T05:20:18;102866.25;;;18.38;37.19
76973;BME280;65907;53.640;10.050;2022-12-18T05:22:43;102867.09;;;18.38;37.16
76973;BME280;65907;53.640;10.050;2022-12-18T05:25:08;102869.75;;;18.37;36.99
76973;BME280;65907;53.640;10.050;2022-12-18T05:27:34;102868.00;;;18.37;37.24
76973;BME280;65907;53.640;10.050;2022-12-18T05:29:59;102864.56;;;18.37;37.27
76973;BME280;65907;53.640;10.050;2022-12-18T05:32:24;102862.78;;;18.37;37.10
76973;BME280;65907;53.640;10.050;2022-12-18T05:34:49;102855.88;;;18.36;37.09
76973;BME280;65907;53.640;10.050;2022-12-18T05:37:14;102868.84;;;18.38;36.92
76973;BME280;65907;53.640;10.050;2022-12-18T05:39:39;102869.69;;;18.38;37.29
76973;BME280;65907;53.640;10.050;2022-12-18T05:42:05;102882.72;;;18.38;36.95
76973;BME280;65907;53.640;10.050;2022-12-18T05:44:30;102889.63;;;18.39;36.95
76973;BME280;65907;53.640;10.050;2022-12-18T05:46:55;102888.78;;;18.39;36.63
76973;BME280;65907;53.640;10.050;2022-12-18T05:49:20;102881.75;;;18.41;36.45
76973;BME280;65907;53.640;10.050;2022-12-18T05:51:45;102873.88;;;18.42;36.32
76973;BME280;65907;53.640;10.050;2022-12-18T05:54:10;102874.66;;;18.44;36.33
76973;BME280;65907;53.640;10.050;2022-12-18T05:56:36;102876.38;;;18.45;36.26
76973;BME280;65907;53.640;10.050;2022-12-18T05:59:01;102869.41;;;18.46;36.35
76973;BME280;65907;53.640;10.050;2022-12-18T06:01:26;102871.97;;;18.47;36.34
76973;BME280;65907;53.640;10.050;2022-12-18T06:03:52;102874.50;;;18.49;36.18
76973;BME280;65907;53.640;10.050;2022-12-18T06:06:21;102877.06;;;18.51;36.31
76973;BME280;65907;53.640;10.050;2022-12-18T06:08:47;102885.69;;;18.51;36.11
76973;BME280;65907;53.640;10.050;2022-12-18T06:11:13;102883.97;;;18.52;35.97
76973;BME280;65907;53.640;10.050;2022-12-18T06:13:38;102888.25;;;18.53;36.11
76973;BME280;65907;53.640;10.050;2022-12-18T06:16:06;102889.09;;;18.53;36.33
76973;BME280;65907;53.640;10.050;2022-12-18T06:18:32;102884.75;;;18.54;36.30
76973;BME280;65907;53.640;10.050;2022-12-18T06:20:57;102885.53;;;18.56;36.23
76973;BME280;65907;53.640;10.050;2022-12-18T06:23:23;102891.53;;;18.58;35.76
76973;BME280;65907;53.640;10.050;2022-12-18T06:25:48;102888.00;;;18.59;35.92
76973;BME280;65907;53.640;10.050;2022-12-18T06:28:13;102894.09;;;18.59;35.84
76973;BME280;65907;53.640;10.050;2022-12-18T06:30:39;102894.09;;;18.59;36.08
76973;BME280;65907;53.640;10.050;2022-12-18T06:33:04;102899.22;;;18.61;35.94
76973;BME280;65907;53.640;10.050;2022-12-18T06:35:29;102904.38;;;18.62;35.74
76973;BME280;65907;53.640;10.050;2022-12-18T06:37:54;102902.63;;;18.63;35.63
76973;BME280;65907;53.640;10.050;2022-12-18T06:40:19;102904.31;;;18.64;35.84
76973;BME280;65907;53.640;10.050;2022-12-18T06:42:45;102906.91;;;18.64;35.59
76973;BME280;65907;53.640;10.050;2022-12-18T06:45:10;102904.31;;;18.64;35.35
76973;BME280;65907;53.640;10.050;2022-12-18T06:47:36;102899.06;;;18.66;35.33
76973;BME280;65907;53.640;10.050;2022-12-18T06:50:01;102906.00;;;18.65;35.39
76973;BME280;65907;53.640;10.050;2022-12-18T06:52:26;102909.47;;;18.66;35.67
76973;BME280;65907;53.640;10.050;2022-12-18T06:54:52;102895.53;;;18.67;35.52
76973;BME280;65907;53.640;10.050;2022-12-18T06:57:17;102898.16;;;18.67;35.46
76973;BME280;65907;53.640;10.050;2022-12-18T06:59:42;102906.78;;;18.67;35.44
76973;BME280;65907;53.640;10.050;2022-12-18T07:02:10;102912.00;;;18.67;35.60
76973;BME280;65907;53.640;10.050;2022-12-18T07:04:35;102907.72;;;18.66;35.49
76973;BME280;65907;53.640;10.050;2022-12-18T07:07:00;102907.72;;;18.66;35.54
76973;BME280;65907;53.640;10.050;2022-12-18T07:09:26;102893.06;;;18.63;35.62
76973;BME280;65907;53.640;10.050;2022-12-18T07:11:51;102897.47;;;18.61;35.65
76973;BME280;65907;53.640;10.050;2022-12-18T07:14:16;102908.81;;;18.60;35.73
76973;BME280;65907;53.640;10.050;2022-12-18T07:16:41;102914.03;;;18.60;35.85
76973;BME280;65907;53.640;10.050;2022-12-18T07:19:06;102919.25;;;18.60;35.76
76973;BME280;65907;53.640;10.050;2022-12-18T07:21:32;102924.50;;;18.59;35.84
76973;BME280;65907;53.640;10.050;2022-12-18T07:23:57;102918.63;;;18.54;36.21
76973;BME280;65907;53.640;10.050;2022-12-18T07:26:22;102928.81;;;18.12;36.64
76973;BME280;65907;53.640;10.050;2022-12-18T07:28:48;102927.34;;;18.29;36.22
76973;BME280;65907;53.640;10.050;2022-12-18T07:31:14;102929.69;;;18.37;35.83
76973;BME280;65907;53.640;10.050;2022-12-18T07:33:40;102933.00;;;18.40;35.50
76973;BME280;65907;53.640;10.050;2022-12-18T07:36:06;102933.75;;;18.44;35.63
76973;BME280;65907;53.640;10.050;2022-12-18T07:38:32;102938.00;;;18.46;35.01
76973;BME280;65907;53.640;10.050;2022-12-18T07:41:01;102933.59;;;18.48;35.25
76973;BME280;65907;53.640;10.050;2022-12-18T07:43:27;102938.78;;;18.48;35.07
76973;BME280;65907;53.640;10.050;2022-12-18T07:45:52;102941.31;;;18.50;35.02
76973;BME280;65907;53.640;10.050;2022-12-18T07:48:17;102946.47;;;18.52;35.14
76973;BME280;65907;53.640;10.050;2022-12-18T07:50:42;102942.97;;;18.53;35.27
76973;BME280;65907;53.640;10.050;2022-12-18T07:53:07;102955.00;;;18.55;35.06
76973;BME280;65907;53.640;10.050;2022-12-18T07:55:33;102949.75;;;18.57;35.17
76973;BME280;65907;53.640;10.050;2022-12-18T07:58:00;102957.53;;;18.58;35.24
76973;BME280;65907;53.640;10.050;2022-12-18T08:00:25;102953.00;;;18.63;35.04
76973;BME280;65907;53.640;10.050;2022-12-18T08:02:50;102951.06;;;18.69;34.63
76973;BME280;65907;53.640;10.050;2022-12-18T08:05:16;102954.41;;;18.72;34.72
76973;BME280;65907;53.640;10.050;2022-12-18T08:07:41;102957.78;;;18.74;34.81
76973;BME280;65907;53.640;10.050;2022-12-18T08:10:06;102958.50;;;18.78;34.43
76973;BME280;65907;53.640;10.050;2022-12-18T08:12:32;102955.00;;;18.79;34.40
76973;BME280;65907;53.640;10.050;2022-12-18T08:14:57;102943.59;;;18.82;34.34
76973;BME280;65907;53.640;10.050;2022-12-18T08:17:22;102937.47;;;18.83;34.37
76973;BME280;65907;53.640;10.050;2022-12-18T08:19:47;102940.03;;;18.84;34.40
76973;BME280;65907;53.640;10.050;2022-12-18T08:22:12;102943.44;;;18.86;34.27
76973;BME280;65907;53.640;10.050;2022-12-18T08:24:38;102936.44;;;18.87;34.33
76973;BME280;65907;53.640;10.050;2022-12-18T08:27:03;102939.91;;;18.87;34.35
76973;BME280;65907;53.640;10.050;2022-12-18T08:29:28;102937.44;;;18.84;34.30
76973;BME280;65907;53.640;10.050;2022-12-18T08:31:55;102941.78;;;18.84;34.52
76973;BME280;65907;53.640;10.050;2022-12-18T08:34:20;102933.19;;;18.82;34.45
76973;BME280;65907;53.640;10.050;2022-12-18T08:36:45;102928.88;;;18.81;34.52
76973;BME280;65907;53.640;10.050;2022-12-18T08:39:10;102926.31;;;18.79;34.36
76973;BME280;65907;53.640;10.050;2022-12-18T08:41:36;102930.69;;;18.78;34.73
76973;BME280;65907;53.640;10.050;2022-12-18T08:44:01;102934.22;;;18.77;34.79
76973;BME280;65907;53.640;10.050;2022-12-18T08:46:44;102929.91;;;18.76;34.84
76973;BME280;65907;53.640;10.050;2022-12-18T08:54:12;102929.13;;;18.74;34.52
76973;BME280;65907;53.640;10.050;2022-12-18T08:56:38;102942.16;;;18.74;34.79
76973;BME280;65907;53.640;10.050;2022-12-18T08:59:03;102936.94;;;18.74;34.55
76973;BME280;65907;53.640;10.050;2022-12-18T09:01:29;102939.59;;;18.73;34.69
76973;BME280;65907;53.640;10.050;2022-12-18T09:03:54;102937.00;;;18.73;34.65
76973;BME280;65907;53.640;10.050;2022-12-18T09:06:20;102943.97;;;18.72;34.68
76973;BME280;65907;53.640;10.050;2022-12-18T09:08:45;102938.75;;;18.72;34.45
76973;BME280;65907;53.640;10.050;2022-12-18T09:11:12;102946.53;;;18.01;34.77
76973;BME280;65907;53.640;10.050;2022-12-18T09:13:37;102943.50;;;17.62;35.29
76973;BME280;65907;53.640;10.050;2022-12-18T09:16:03;102947.22;;;17.55;36.01
76973;BME280;65907;53.640;10.050;2022-12-18T09:18:28;102933.59;;;17.98;34.94
76973;BME280;65907;53.640;10.050;2022-12-18T09:20:53;102935.47;;;18.19;33.88
76973;BME280;65907;53.640;10.050;2022-12-18T09:23:18;102944.59;;;18.31;34.17
76973;BME280;65907;53.640;10.050;2022-12-18T09:25:44;102943.53;;;18.37;34.21
76973;BME280;65907;53.640;10.050;2022-12-18T09:28:10;102945.13;;;18.41;34.74
76973;BME280;65907;53.640;10.050;2022-12-18T09:30:39;102937.13;;;18.46;35.27
76973;BME280;65907;53.640;10.050;2022-12-18T09:33:05;102950.13;;;18.47;35.69
76973;BME280;65907;53.640;10.050;2022-12-18T09:35:30;102943.09;;;18.49;36.66
76973;BME280;65907;53.640;10.050;2022-12-18T09:37:55;102950.00;;;18.51;36.78
76973;BME280;65907;53.640;10.050;2022-12-18T09:40:21;102954.22;;;18.53;37.03
76973;BME280;65907;53.640;10.050;2022-12-18T09:42:50;102939.47;;;18.54;37.54
76973;BME280;65907;53.640;10.050;2022-12-18T09:45:17;102939.38;;;18.55;37.87
76973;BME280;65907;53.640;10.050;2022-12-18T09:47:43;102941.03;;;18.58;37.70
76973;BME280;65907;53.640;10.050;2022-12-18T09:52:55;102956.56;;;18.61;38.19
76973;BME280;65907;53.640;10.050;2022-12-18T09:57:51;102952.19;;;18.61;38.96
76973;BME280;65907;53.640;10.050;2022-12-18T10:00:19;102942.63;;;18.62;38.98
76973;BME280;65907;53.640;10.050;2022-12-18T10:02:45;102947.81;;;18.62;38.72
76973;BME280;65907;53.640;10.050;2022-12-18T10:05:15;102952.13;;;18.63;39.30
76973;BME280;65907;53.640;10.050;2022-12-18T10:08:05;102940.88;;;18.62;39.11
76973;BME280;65907;53.640;10.050;2022-12-18T10:10:36;102950.38;;;18.63;39.45
76973;BME280;65907;53.640;10.050;2022-12-18T10:15:53;102928.69;;;18.63;39.98
76973;BME280;65907;53.640;10.050;2022-12-18T10:21:01;102935.59;;;18.64;40.10
76973;BME280;65907;53.640;10.050;2022-12-18T10:26:03;102951.22;;;18.64;40.25
76973;BME280;65907;53.640;10.050;2022-12-18T10:28:29;102963.34;;;18.65;40.32
76973;BME280;65907;53.640;10.050;2022-12-18T10:30:55;102956.44;;;18.64;40.59
76973;BME280;65907;53.640;10.050;2022-12-18T10:33:22;102962.50;;;18.65;40.72
76973;BME280;65907;53.640;10.050;2022-12-18T10:35:49;102963.41;;;18.63;40.94
76973;BME280;65907;53.640;10.050;2022-12-18T10:40:52;102963.41;;;18.63;41.10
76973;BME280;65907;53.640;10.050;2022-12-18T10:43:22;102966.06;;;18.62;41.00
76973;BME280;65907;53.640;10.050;2022-12-18T10:48:22;102956.56;;;18.61;41.28
76973;BME280;65907;53.640;10.050;2022-12-18T10:50:49;102943.53;;;18.61;41.51
76973;BME280;65907;53.640;10.050;2022-12-18T10:53:20;102944.44;;;18.60;41.64
76973;BME280;65907;53.640;10.050;2022-12-18T10:55:46;102942.72;;;18.59;41.67
76973;BME280;65907;53.640;10.050;2022-12-18T10:58:58;102945.34;;;18.59;41.76
76973;BME280;65907;53.640;10.050;2022-12-18T11:03:40;102935.72;;;18.61;41.89
76973;BME280;65907;53.640;10.050;2022-12-18T11:06:07;102934.88;;;18.60;42.16
76973;BME280;65907;53.640;10.050;2022-12-18T11:08:32;102932.19;;;18.62;41.94
76973;BME280;65907;53.640;10.050;2022-12-18T11:10:58;102935.72;;;18.61;41.91
76973;BME280;65907;53.640;10.050;2022-12-18T11:13:24;102937.41;;;18.62;41.91
76973;BME280;65907;53.640;10.050;2022-12-18T11:15:50;102942.69;;;18.60;42.00
76973;BME280;65907;53.640;10.050;2022-12-18T11:18:25;102934.88;;;18.60;42.02
76973;BME280;65907;53.640;10.050;2022-12-18T11:20:51;102928.78;;;18.60;42.50
76973;BME280;65907;53.640;10.050;2022-12-18T11:23:18;102932.25;;;18.60;42.17
76973;BME280;65907;53.640;10.050;2022-12-18T11:25:50;102934.00;;;18.60;42.55
76973;BME280;65907;53.640;10.050;2022-12-18T11:28:27;102935.78;;;18.59;42.32
76973;BME280;65907;53.640;10.050;2022-12-18T11:33:39;102917.63;;;18.56;42.56
76973;BME280;65907;53.640;10.050;2022-12-18T11:36:06;102917.72;;;18.55;42.46
76973;BME280;65907;53.640;10.050;2022-12-18T11:38:34;102916.78;;;18.56;42.41
76973;BME280;65907;53.640;10.050;2022-12-18T11:41:01;102920.31;;;18.55;42.28
76973;BME280;65907;53.640;10.050;2022-12-18T11:43:37;102918.53;;;18.55;42.72
76973;BME280;65907;53.640;10.050;2022-12-18T11:48:37;102911.59;;;18.56;42.71
76973;BME280;65907;53.640;10.050;2022-12-18T11:51:04;102900.31;;;18.55;42.75
76973;BME280;65907;53.640;10.050;2022-12-18T11:53:33;102896.78;;;18.56;43.05
76973;BME280;65907;53.640;10.050;2022-12-18T11:58:41;102892.47;;;18.55;42.62
76973;BME280;65907;53.640;10.050;2022-12-18T12:01:52;102895.97;;;18.56;42.77
76973;BME280;65907;53.640;10.050;2022-12-18T12:04:01;102887.34;;;18.54;42.72
76973;BME280;65907;53.640;10.050;2022-12-18T12:16:29;102863.03;;;18.53;42.67
76973;BME280;65907;53.640;10.050;2022-12-18T12:21:28;102858.69;;;18.54;42.62
76973;BME280;65907;53.640;10.050;2022-12-18T12:24:02;102861.28;;;18.54;42.62
76973;BME280;65907;53.640;10.050;2022-12-18T12:29:25;102854.31;;;18.54;42.99
76973;BME280;65907;53.640;10.050;2022-12-18T12:32:04;102839.53;;;18.55;43.17
76973;BME280;65907;53.640;10.050;2022-12-18T12:34:34;102834.34;;;18.55;42.79
76973;BME280;65907;53.640;10.050;2022-12-18T12:37:07;102836.03;;;18.56;42.88
76973;BME280;65907;53.640;10.050;2022-12-18T12:39:37;102830.81;;;18.56;43.15
76973;BME280;65907;53.640;10.050;2022-12-18T12:42:05;102823.91;;;18.55;43.47
76973;BME280;65907;53.640;10.050;2022-12-18T12:44:54;102823.00;;;18.56;43.33
76973;BME280;65907;53.640;10.050;2022-12-18T12:47:30;102816.09;;;18.55;43.25
76973;BME280;65907;53.640;10.050;2022-12-18T12:49:58;102807.41;;;18.54;43.57
76973;BME280;65907;53.640;10.050;2022-12-18T12:54:52;102797.91;;;18.53;43.28
76973;BME280;65907;53.640;10.050;2022-12-18T12:57:33;102797.84;;;18.55;43.05
76973;BME280;65907;53.640;10.050;2022-12-18T13:00:13;102793.56;;;18.54;43.36
76973;BME280;65907;53.640;10.050;2022-12-18T13:07:40;102790.09;;;18.53;43.06
76973;BME280;65907;53.640;10.050;2022-12-18T13:12:50;102780.56;;;18.52;43.21
76973;BME280;65907;53.640;10.050;2022-12-18T13:15:27;102774.53;;;18.52;43.02
76973;BME280;65907;53.640;10.050;2022-12-18T13:18:03;102779.75;;;18.52;42.99
76973;BME280;65907;53.640;10.050;2022-12-18T13:20:33;102784.97;;;18.52;42.89
76973;BME280;65907;53.640;10.050;2022-12-18T13:22:59;102778.88;;;18.51;42.87
76973;BME280;65907;53.640;10.050;2022-12-18T13:25:28;102785.78;;;18.52;42.88
76973;BME280;65907;53.640;10.050;2022-12-18T13:27:59;102779.75;;;18.52;42.96
76973;BME280;65907;53.640;10.050;2022-12-18T13:35:41;102789.31;;;18.51;43.14
76973;BME280;65907;53.640;10.050;2022-12-18T13:48:27;102777.13;;;18.52;43.13
76973;BME280;65907;53.640;10.050;2022-12-18T13:50:57;102787.47;;;18.53;42.77
76973;BME280;65907;53.640;10.050;2022-12-18T13:53:26;102788.34;;;18.54;42.62
76973;BME280;65907;53.640;10.050;2022-12-18T13:55:52;102783.97;;;18.54;42.94
76973;BME280;65907;53.640;10.050;2022-12-18T13:58:17;102786.53;;;18.56;42.60
76973;BME280;65907;53.640;10.050;2022-12-18T14:00:43;102789.13;;;18.56;42.85
76973;BME280;65907;53.640;10.050;2022-12-18T14:03:23;102797.78;;;18.56;42.71
76973;BME280;65907;53.640;10.050;2022-12-18T14:06:01;102787.34;;;18.56;42.55
76973;BME280;65907;53.640;10.050;2022-12-18T14:08:31;102780.44;;;18.55;42.57
76973;BME280;65907;53.640;10.050;2022-12-18T14:10:57;102774.41;;;18.55;42.76
76973;BME280;65907;53.640;10.050;2022-12-18T14:13:33;102778.72;;;18.56;42.75
76973;BME280;65907;53.640;10.050;2022-12-18T14:16:01;102776.09;;;18.56;42.55
76973;BME280;65907;53.640;10.050;2022-12-18T14:18:29;102776.88;;;18.58;42.62
76973;BME280;65907;53.640;10.050;2022-12-18T14:20:59;102776.88;;;18.58;42.65
76973;BME280;65907;53.640;10.050;2022-12-18T14:25:51;102777.66;;;18.60;42.57
76973;BME280;65907;53.640;10.050;2022-12-18T14:28:16;102775.94;;;18.60;42.61
76973;BME280;65907;53.640;10.050;2022-12-18T14:30:42;102776.72;;;18.62;42.64
76973;BME280;65907;53.640;10.050;2022-12-18T14:35:34;102783.53;;;18.65;42.61